Time;durP1;ratioP1;P1;durP2;ratioP2;P2;SDS_P1;SDS_P2;PMS_P1;PMS_P2;Temp;Humidity;BMP_temperature;BMP_pressure;BME280_temperature;BME280_humidity;BME280_pressure;Samples;Min_cycle;Max_cycle;Signal;HPM_P1;HPM_P2
2023/03/06 00:02:05;;;;;;;0.50;0.50;;;;;;;4.69;86.47;99537.47;5093166;28;20811;-48
2023/03/06 00:04:31;;;;;;;1.07;1.07;;;;;;;4.55;85.52;99539.47;5105346;28;20445;-47
2023/03/06 00:06:58;;;;;;;0.53;0.47;;;;;;;4.53;85.34;99538.63;5107660;28;20453;-46
2023/03/06 00:09:24;;;;;;;0.60;0.47;;;;;;;4.54;85.54;99536.88;5105565;28;20525;-47
2023/03/06 00:11:50;;;;;;;1.40;1.30;;;;;;;4.49;85.75;99533.41;5100758;28;20454;-47
2023/03/06 00:14:17;;;;;;;0.20;0.20;;;;;;;4.51;85.12;99526.38;5105018;28;20444;-47
2023/03/06 00:16:43;;;;;;;1.70;1.60;;;;;;;4.48;85.89;99529.91;5108576;28;20514;-46
2023/03/06 00:19:10;;;;;;;0.50;0.30;;;;;;;4.44;86.60;99528.25;5105860;28;20464;-47
2023/03/06 00:21:39;;;;;;;1.07;0.40;;;;;;;4.51;87.06;99521.09;5101689;28;20948;-48
2023/03/06 00:24:06;;;;;;;1.27;1.27;;;;;;;4.45;86.49;99516.81;5103749;28;20496;-48
2023/03/06 00:26:33;;;;;;;0.60;0.40;;;;;;;4.42;86.88;99528.28;5102369;28;20448;-47
2023/03/06 00:29:00;;;;;;;0.70;0.57;;;;;;;4.47;87.01;99523.78;5103388;28;20465;-47
2023/03/06 00:31:26;;;;;;;1.20;1.10;;;;;;;4.42;87.52;99524.78;5108566;28;20448;-47
2023/03/06 00:33:53;;;;;;;1.83;0.90;;;;;;;4.45;87.66;99520.31;5106327;28;20454;-46
2023/03/06 00:36:19;;;;;;;1.23;1.03;;;;;;;4.54;87.58;99516.69;5101226;28;20455;-46
2023/03/06 00:38:45;;;;;;;9.93;1.53;;;;;;;4.57;87.80;99515.75;5103303;28;20552;-47
2023/03/06 00:41:12;;;;;;;1.63;1.47;;;;;;;4.40;87.38;99514.28;5093851;28;20917;-47
2023/03/06 00:43:39;;;;;;;0.77;0.77;;;;;;;4.40;87.03;99510.78;5103182;28;20542;-47
2023/03/06 00:46:05;;;;;;;2.27;2.17;;;;;;;4.51;87.36;99502.69;5108194;28;20946;-47
2023/03/06 00:48:33;;;;;;;0.90;0.90;;;;;;;4.43;88.27;99502.84;5106196;28;20472;-47
2023/03/06 00:51:00;;;;;;;1.37;1.27;;;;;;;4.58;86.56;99493.81;5100459;28;20448;-48
2023/03/06 00:53:26;;;;;;;0.40;0.40;;;;;;;4.51;87.04;99486.91;5102603;28;20926;-47
2023/03/06 00:55:52;;;;;;;1.43;1.33;;;;;;;4.37;87.98;99480.09;5099803;28;20448;-47
2023/03/06 00:58:19;;;;;;;6.53;1.43;;;;;;;4.33;88.39;99486.31;5101649;28;20469;-47
2023/03/06 01:00:46;;;;;;;0.40;0.40;;;;;;;4.36;88.61;99480.13;5107817;28;20451;-47
2023/03/06 01:03:12;;;;;;;4.80;1.17;;;;;;;4.28;88.97;99482.03;5087877;28;20572;-47
2023/03/06 01:05:39;;;;;;;0.73;0.60;;;;;;;4.30;89.29;99472.34;5102163;28;20495;-46
2023/03/06 01:08:05;;;;;;;0.73;0.73;;;;;;;4.23;89.26;99476.84;5100289;28;20448;-47
2023/03/06 01:10:32;;;;;;;0.60;0.60;;;;;;;4.19;89.51;99472.53;5100337;28;20452;-47
2023/03/06 01:12:58;;;;;;;0.90;0.90;;;;;;;4.12;89.93;99470.91;5100809;28;20937;-47
2023/03/06 01:15:25;;;;;;;0.80;0.80;;;;;;;4.11;89.30;99461.25;5110994;28;20452;-46
2023/03/06 01:17:53;;;;;;;0.80;0.80;;;;;;;4.10;89.75;99451.63;5100448;28;20445;-47
2023/03/06 01:20:20;;;;;;;1.43;1.33;;;;;;;4.17;89.37;99453.28;5087343;28;20448;-47
2023/03/06 01:22:47;;;;;;;0.43;0.43;;;;;;;4.21;89.24;99447.06;5100245;28;20859;-47
2023/03/06 01:25:13;;;;;;;0.40;0.40;;;;;;;4.20;89.77;99449.72;5106934;28;20449;-46
2023/03/06 01:27:40;;;;;;;0.90;0.70;;;;;;;4.09;90.12;99448.13;5107240;28;20945;-47
2023/03/06 01:30:07;;;;;;;0.90;0.90;;;;;;;4.06;90.25;99442.06;5100886;28;20566;-47
2023/03/06 01:32:33;;;;;;;0.73;0.70;;;;;;;4.06;90.63;99440.28;5112956;28;20447;-48
2023/03/06 01:35:02;;;;;;;1.20;0.93;;;;;;;4.04;90.42;99435.97;5100481;28;20963;-47
2023/03/06 01:37:29;;;;;;;12.93;1.47;;;;;;;4.08;90.19;99442.91;5099910;28;20498;-47
2023/03/06 01:39:55;;;;;;;0.50;0.40;;;;;;;4.01;90.45;99431.63;5104741;28;20511;-46
2023/03/06 01:42:22;;;;;;;0.87;0.70;;;;;;;4.06;91.12;99434.16;5107269;28;20456;-47
2023/03/06 01:45:13;;;;;;;0.70;0.60;;;;;;;4.06;90.27;99428.91;5101636;28;20503;-47
2023/03/06 01:47:40;;;;;;;1.60;0.60;;;;;;;4.00;90.36;99418.50;5099997;28;20454;-47
2023/03/06 01:50:09;;;;;;;1.33;1.23;;;;;;;3.96;90.53;99417.66;5101515;28;20497;-47
2023/03/06 01:52:43;;;;;;;1.23;1.13;;;;;;;3.92;91.14;99423.00;5106833;28;20448;-47
2023/03/06 01:55:16;;;;;;;1.47;1.07;;;;;;;4.00;90.98;99411.47;5092408;28;20456;-47
2023/03/06 01:57:45;;;;;;;1.27;0.80;;;;;;;3.90;91.20;99411.66;5088567;28;20848;-47
2023/03/06 02:00:19;;;;;;;0.40;0.30;;;;;;;4.10;90.58;99407.78;5098407;28;20931;-47
2023/03/06 02:02:51;;;;;;;1.10;0.83;;;;;;;4.19;90.68;99408.53;5106997;27;20895;-47
2023/03/06 02:05:19;;;;;;;3.27;1.23;;;;;;;4.15;90.37;99407.72;5099171;28;20535;-47
2023/03/06 02:07:46;;;;;;;0.93;0.93;;;;;;;4.14;90.90;99406.00;5102706;28;20449;-47
2023/03/06 02:10:14;;;;;;;1.70;0.53;;;;;;;4.21;90.61;99404.13;5106776;28;20449;-47
2023/03/06 02:12:43;;;;;;;0.87;0.87;;;;;;;4.12;91.10;99402.53;5104139;28;20459;-46
2023/03/06 02:15:14;;;;;;;0.47;0.47;;;;;;;4.21;90.82;99391.84;5099612;28;20456;-47
2023/03/06 02:17:45;;;;;;;0.53;0.53;;;;;;;4.16;91.11;99393.69;5101240;28;20441;-46
2023/03/06 02:20:27;;;;;;;1.67;1.57;;;;;;;4.14;90.83;99390.22;5106159;28;20452;-47
2023/03/06 02:23:01;;;;;;;1.13;1.13;;;;;;;4.25;90.33;99398.78;5099389;28;20445;-48
2023/03/06 02:25:43;;;;;;;0.97;0.60;;;;;;;4.33;90.53;99390.75;5103420;28;20478;-47
2023/03/06 02:28:13;;;;;;;7.60;0.87;;;;;;;4.26;90.71;99389.16;5106346;28;20469;-47
2023/03/06 02:30:41;;;;;;;1.70;1.20;;;;;;;4.25;90.56;99388.28;5104230;28;20452;-47
2023/03/06 02:33:11;;;;;;;0.87;0.87;;;;;;;4.26;90.10;99383.88;5099506;28;20472;-48
2023/03/06 02:35:39;;;;;;;0.97;0.97;;;;;;;4.31;90.65;99380.25;5099975;28;20462;-48
2023/03/06 02:38:09;;;;;;;1.07;1.07;;;;;;;4.39;90.26;99385.41;5086240;28;20944;-47
2023/03/06 02:40:36;;;;;;;0.53;0.40;;;;;;;4.48;89.75;99382.56;5099503;28;20866;-46
2023/03/06 02:43:04;;;;;;;2.10;1.60;;;;;;;4.51;89.82;99376.38;5105059;28;20999;-47
2023/03/06 02:45:48;;;;;;;2.30;1.37;;;;;;;4.49;89.75;99371.16;5104668;28;20452;-47
2023/03/06 02:48:16;;;;;;;0.30;0.30;;;;;;;4.42;89.61;99364.28;5092332;28;20595;-48
2023/03/06 02:50:44;;;;;;;0.93;0.70;;;;;;;4.29;90.63;99361.00;5096141;28;20444;-47
2023/03/06 02:53:12;;;;;;;2.50;0.43;;;;;;;4.35;90.25;99358.25;5101785;28;20810;-47
2023/03/06 02:55:39;;;;;;;0.60;0.50;;;;;;;4.38;90.28;99360.81;5095434;28;20459;-47
2023/03/06 02:58:06;;;;;;;0.33;0.30;;;;;;;4.41;90.50;99360.78;5104532;28;20459;-46
2023/03/06 03:00:33;;;;;;;1.33;1.23;;;;;;;4.30;91.01;99357.47;5098935;28;20444;-47
2023/03/06 03:03:00;;;;;;;4.43;1.03;;;;;;;4.34;90.82;99353.91;5106026;28;20843;-48
2023/03/06 03:05:26;;;;;;;0.30;0.20;;;;;;;4.31;90.88;99351.31;5097186;28;20945;-47
2023/03/06 03:07:53;;;;;;;0.53;0.53;;;;;;;4.30;91.24;99349.59;5101355;28;20445;-47
2023/03/06 03:10:19;;;;;;;3.67;1.07;;;;;;;4.36;91.56;99344.22;5105839;28;20449;-46
2023/03/06 03:12:46;;;;;;;0.50;0.40;;;;;;;4.34;91.74;99348.63;5103531;28;20454;-47
2023/03/06 03:15:12;;;;;;;0.30;0.23;;;;;;;4.30;91.11;99346.97;5081119;28;20441;-47
2023/03/06 03:17:39;;;;;;;0.30;0.20;;;;;;;4.31;91.93;99347.81;5103697;28;20448;-48
2023/03/06 03:20:10;;;;;;;0.70;0.70;;;;;;;4.24;91.99;99341.78;5085172;28;20482;-49
2023/03/06 03:22:37;;;;;;;0.87;0.87;;;;;;;4.30;92.05;99343.47;5100363;28;20445;-47
2023/03/06 03:25:04;;;;;;;1.07;0.97;;;;;;;4.35;91.97;99338.97;5105381;28;20952;-47
2023/03/06 03:27:31;;;;;;;1.23;0.43;;;;;;;4.30;92.13;99341.72;5105024;28;20505;-47
2023/03/06 03:29:58;;;;;;;1.03;1.03;;;;;;;4.24;92.57;99348.81;5098827;28;20467;-46
2023/03/06 03:32:25;;;;;;;0.30;0.20;;;;;;;4.26;92.79;99342.66;5099005;28;21010;-47
2023/03/06 03:34:54;;;;;;;1.00;0.87;;;;;;;4.39;92.14;99348.56;5100101;28;20498;-48
2023/03/06 03:37:20;;;;;;;3.60;0.93;;;;;;;4.31;92.45;99340.81;5099008;28;20449;-47
2023/03/06 03:39:47;;;;;;;4.73;1.13;;;;;;;4.29;92.73;99353.13;5104865;28;20560;-47
2023/03/06 03:42:13;;;;;;;0.67;0.67;;;;;;;4.35;92.67;99337.22;5108034;28;20451;-47
2023/03/06 03:44:39;;;;;;;6.90;1.17;;;;;;;4.37;92.21;99342.44;5103066;28;20494;-47
2023/03/06 03:47:06;;;;;;;1.37;1.23;;;;;;;4.28;93.17;99332.13;5094919;28;20532;-47
2023/03/06 03:49:32;;;;;;;2.00;1.03;;;;;;;4.45;91.99;99330.88;5108237;27;20564;-47
2023/03/06 03:51:59;;;;;;;1.10;0.70;;;;;;;4.36;92.65;99327.56;5109535;28;20833;-47
2023/03/06 03:54:25;;;;;;;1.37;1.27;;;;;;;4.44;92.64;99323.91;5096096;28;20441;-47
2023/03/06 03:56:52;;;;;;;1.10;1.10;;;;;;;4.32;92.86;99325.88;5110072;28;20440;-47
2023/03/06 03:59:19;;;;;;;1.90;0.67;;;;;;;4.30;93.28;99325.91;5103079;28;20467;-47
2023/03/06 04:01:46;;;;;;;1.13;0.40;;;;;;;4.19;93.56;99321.75;5096220;28;20453;-47
2023/03/06 04:04:12;;;;;;;2.20;1.03;;;;;;;4.16;93.93;99322.69;5103233;28;20857;-47
2023/03/06 04:06:39;;;;;;;1.13;0.40;;;;;;;4.28;93.35;99314.56;5102716;28;20556;-47
2023/03/06 04:09:05;;;;;;;2.37;2.27;;;;;;;4.34;93.62;99311.81;5109393;28;20850;-47
2023/03/06 04:11:32;;;;;;;22.60;2.50;;;;;;;4.28;93.51;99311.94;5109977;28;20454;-47
2023/03/06 04:13:58;;;;;;;0.60;0.43;;;;;;;4.29;93.51;99304.91;5103311;28;20505;-47
2023/03/06 04:16:24;;;;;;;1.20;1.00;;;;;;;4.35;93.27;99308.28;5103243;28;20861;-47
2023/03/06 04:18:51;;;;;;;1.67;1.37;;;;;;;4.48;92.84;99308.91;5108818;28;20550;-48
2023/03/06 04:21:17;;;;;;;0.40;0.40;;;;;;;4.45;92.68;99303.72;5109895;28;20450;-47
2023/03/06 04:23:44;;;;;;;0.60;0.60;;;;;;;4.59;92.64;99300.81;5102655;28;20480;-47
2023/03/06 04:26:10;;;;;;;2.00;0.73;;;;;;;4.52;92.66;99299.19;5102595;28;20444;-49
2023/03/06 04:28:37;;;;;;;1.67;1.53;;;;;;;4.53;93.07;99298.31;5108183;28;20592;-47
2023/03/06 04:31:03;;;;;;;1.07;0.80;;;;;;;4.56;93.12;99303.50;5109273;28;20452;-47
2023/03/06 04:33:30;;;;;;;2.70;1.23;;;;;;;4.53;93.06;99293.91;5097951;28;20462;-47
2023/03/06 04:35:56;;;;;;;4.47;3.33;;;;;;;4.53;92.91;99293.91;5088205;28;20804;-48
2023/03/06 04:38:23;;;;;;;1.33;1.27;;;;;;;4.60;92.57;99287.59;5100836;28;20485;-47
2023/03/06 04:40:49;;;;;;;0.93;0.87;;;;;;;4.60;92.01;99282.34;5103853;28;20448;-47
2023/03/06 04:43:16;;;;;;;1.73;1.63;;;;;;;4.65;91.69;99291.00;5104251;28;20454;-47
2023/03/06 04:45:42;;;;;;;3.13;1.03;;;;;;;4.79;92.51;99280.19;5104408;28;20480;-47
2023/03/06 04:48:13;;;;;;;2.80;2.33;;;;;;;4.58;92.70;99278.88;5102259;28;20479;-47
2023/03/06 04:50:40;;;;;;;0.53;0.53;;;;;;;4.71;92.46;99268.97;5095115;22;21116;-50
2023/03/06 04:53:07;;;;;;;10.03;1.30;;;;;;;4.62;91.77;99279.69;5083567;28;20481;-50
2023/03/06 04:55:34;;;;;;;1.30;0.70;;;;;;;4.62;91.64;99263.88;5071062;28;20450;-51
2023/03/06 04:58:00;;;;;;;1.03;0.90;;;;;;;4.63;92.46;99278.78;5064338;28;20446;-50
2023/03/06 05:00:29;;;;;;;1.70;0.90;;;;;;;4.65;91.96;99262.06;5070882;28;20541;-50
2023/03/06 05:02:59;;;;;;;7.57;1.23;;;;;;;4.67;91.91;99264.69;5064719;28;20461;-50
2023/03/06 05:05:26;;;;;;;1.60;1.00;;;;;;;4.82;90.97;99269.59;5060455;28;20824;-50
2023/03/06 05:07:54;;;;;;;1.27;1.17;;;;;;;4.70;91.28;99265.47;5070939;28;20793;-50
2023/03/06 05:10:21;;;;;;;16.13;1.97;;;;;;;4.72;90.79;99273.34;5072717;28;20519;-51
2023/03/06 05:12:47;;;;;;;2.57;1.27;;;;;;;4.45;92.01;99270.38;5085880;28;20509;-51
2023/03/06 05:15:14;;;;;;;1.03;1.03;;;;;;;4.33;93.46;99272.38;5079415;28;20442;-51
2023/03/06 05:17:41;;;;;;;0.93;0.93;;;;;;;4.27;93.60;99262.00;5082655;28;20427;-50
2023/03/06 05:20:09;;;;;;;1.03;0.77;;;;;;;4.24;93.63;99264.66;5088907;28;20466;-50
2023/03/06 05:22:36;;;;;;;17.03;1.47;;;;;;;3.96;95.32;99264.31;5088527;28;20509;-50
2023/03/06 05:25:04;;;;;;;0.80;0.70;;;;;;;4.11;94.97;99261.41;5065048;28;20488;-50
2023/03/06 05:27:31;;;;;;;0.87;0.87;;;;;;;4.08;95.09;99264.97;5067515;28;20816;-50
2023/03/06 05:29:58;;;;;;;0.80;0.80;;;;;;;4.26;94.41;99263.75;5059082;28;20469;-50
2023/03/06 05:32:24;;;;;;;1.23;1.13;;;;;;;4.23;93.89;99261.16;5067534;28;20458;-50
2023/03/06 05:34:50;;;;;;;0.83;0.50;;;;;;;4.08;95.02;99256.22;5066531;28;20498;-50
2023/03/06 05:37:17;;;;;;;0.77;0.77;;;;;;;4.23;94.13;99266.44;5059119;28;20953;-49
2023/03/06 05:39:44;;;;;;;0.60;0.60;;;;;;;4.04;94.36;99254.53;5065513;28;20974;-49
2023/03/06 05:42:10;;;;;;;1.67;1.57;;;;;;;4.05;95.23;99265.03;5066610;28;20456;-49
2023/03/06 05:44:37;;;;;;;2.20;1.00;;;;;;;3.95;95.40;99259.97;5058714;28;20836;-49
2023/03/06 05:47:03;;;;;;;1.77;1.67;;;;;;;4.09;94.88;99263.19;5061031;28;20496;-49
2023/03/06 05:49:32;;;;;;;1.93;1.30;;;;;;;4.13;94.10;99268.38;5066872;28;20844;-49
2023/03/06 05:51:59;;;;;;;0.70;0.63;;;;;;;4.28;93.40;99264.59;5066596;28;20450;-49
2023/03/06 05:54:25;;;;;;;2.27;1.77;;;;;;;4.49;92.33;99260.66;5080905;28;20438;-50
2023/03/06 05:56:51;;;;;;;1.13;1.13;;;;;;;4.40;92.86;99268.75;5087374;28;20517;-49
2023/03/06 05:59:18;;;;;;;1.33;1.23;;;;;;;4.40;92.74;99261.72;5075220;28;20465;-49
2023/03/06 06:01:44;;;;;;;1.23;1.20;;;;;;;4.36;93.60;99262.66;5079766;28;20454;-49
2023/03/06 06:04:11;;;;;;;1.00;0.93;;;;;;;4.32;93.54;99268.03;5082607;28;20470;-50
2023/03/06 06:06:37;;;;;;;5.37;1.87;;;;;;;4.34;93.73;99268.84;5082975;28;20511;-49
2023/03/06 06:09:04;;;;;;;1.03;1.03;;;;;;;4.29;93.71;99262.81;5078190;28;20558;-50
2023/03/06 06:11:30;;;;;;;0.43;0.43;;;;;;;4.31;93.74;99263.66;5079104;28;20866;-49
2023/03/06 06:13:56;;;;;;;1.03;1.03;;;;;;;4.33;93.21;99261.84;5083765;28;20526;-49
2023/03/06 06:16:23;;;;;;;1.73;1.17;;;;;;;4.36;93.70;99262.66;5082233;28;20848;-53
2023/03/06 06:18:49;;;;;;;3.53;2.20;;;;;;;4.38;92.85;99265.25;5078480;28;20835;-49
2023/03/06 06:21:16;;;;;;;1.10;1.10;;;;;;;4.43;93.55;99263.41;5077135;28;20446;-51
2023/03/06 06:23:42;;;;;;;7.13;1.23;;;;;;;4.47;93.81;99270.34;5072181;28;20476;-50
2023/03/06 06:26:10;;;;;;;2.63;2.07;;;;;;;4.53;92.41;99266.72;5066991;28;20492;-49
2023/03/06 06:28:36;;;;;;;2.30;1.20;;;;;;;4.39;92.76;99267.88;5061588;28;20523;-49
2023/03/06 06:31:08;;;;;;;1.83;1.63;;;;;;;4.42;93.31;99266.94;5059698;28;20457;-49
2023/03/06 06:33:34;;;;;;;3.23;2.57;;;;;;;4.36;93.05;99260.03;5073077;28;20446;-49
2023/03/06 06:36:01;;;;;;;3.63;3.53;;;;;;;4.39;93.63;99265.25;5060078;28;20442;-49
2023/03/06 06:38:27;;;;;;;4.47;1.80;;;;;;;4.33;93.46;99275.00;5063149;28;20443;-49
2023/03/06 06:40:54;;;;;;;1.43;1.33;;;;;;;4.25;94.06;99267.28;5067418;28;20942;-49
2023/03/06 06:43:40;;;;;;;2.90;2.60;;;;;;;4.36;93.78;99275.81;5067199;28;20481;-49
2023/03/06 06:46:06;;;;;;;2.77;1.90;;;;;;;4.29;94.17;99273.34;5060050;28;20485;-48
2023/03/06 06:48:53;;;;;;;1.53;0.90;;;;;;;4.27;94.33;99273.38;5060504;28;20540;-52
2023/03/06 06:51:21;;;;;;;5.07;1.60;;;;;;;4.26;94.97;99278.69;5066513;28;20453;-49
2023/03/06 06:53:50;;;;;;;2.47;1.27;;;;;;;4.25;94.63;99271.66;5071569;28;20529;-48
2023/03/06 06:56:17;;;;;;;1.30;1.03;;;;;;;4.25;95.23;99267.28;5064779;28;20450;-49
2023/03/06 06:58:43;;;;;;;1.37;0.60;;;;;;;4.31;95.63;99272.41;5069400;28;20453;-49
2023/03/06 07:01:11;;;;;;;0.73;0.73;;;;;;;4.34;95.28;99274.13;5066680;28;20858;-48
2023/03/06 07:03:39;;;;;;;4.10;2.10;;;;;;;4.35;95.28;99267.94;5073330;28;20541;-49
2023/03/06 07:06:06;;;;;;;1.47;1.37;;;;;;;4.31;95.63;99267.16;5063321;28;21063;-48
2023/03/06 07:08:33;;;;;;;8.10;1.60;;;;;;;4.50;93.91;99264.13;5066604;28;20458;-49
2023/03/06 07:11:05;;;;;;;2.73;1.37;;;;;;;4.57;93.56;99271.88;5052657;28;20454;-48
2023/03/06 07:13:33;;;;;;;2.93;2.73;;;;;;;4.62;93.30;99269.16;5064349;28;20534;-49
2023/03/06 07:15:59;;;;;;;2.10;1.23;;;;;;;4.64;93.91;99264.72;5063370;28;20793;-49
2023/03/06 07:18:26;;;;;;;2.10;1.90;;;;;;;4.70;93.10;99267.25;5058471;28;20455;-49
2023/03/06 07:20:53;;;;;;;3.40;1.23;;;;;;;4.69;92.68;99269.00;5067247;28;20452;-49
2023/03/06 07:23:20;;;;;;;1.87;0.80;;;;;;;4.78;92.46;99270.56;5058558;28;20450;-51
2023/03/06 07:25:46;;;;;;;28.83;1.37;;;;;;;4.86;92.89;99270.41;5066759;28;20848;-51
2023/03/06 07:28:13;;;;;;;1.53;1.33;;;;;;;4.87;91.99;99272.13;5063884;28;20454;-51
2023/03/06 07:30:40;;;;;;;1.73;1.63;;;;;;;4.85;92.12;99269.53;5065828;28;20502;-51
2023/03/06 07:33:07;;;;;;;2.20;1.83;;;;;;;4.87;91.86;99273.00;5069856;28;20454;-51
2023/03/06 07:35:34;;;;;;;2.50;1.70;;;;;;;4.86;91.47;99273.03;5066973;28;20445;-51
2023/03/06 07:38:00;;;;;;;1.90;1.80;;;;;;;4.88;90.81;99272.09;5062905;28;20478;-51
2023/03/06 07:40:27;;;;;;;3.00;2.80;;;;;;;5.16;90.71;99274.09;5064401;28;20474;-51
2023/03/06 07:42:55;;;;;;;6.37;3.33;;;;;;;4.93;90.91;99269.34;5069884;28;20446;-51
2023/03/06 07:45:38;;;;;;;2.80;1.50;;;;;;;5.25;90.74;99266.00;5070140;28;21035;-52
2023/03/06 07:48:05;;;;;;;6.53;2.20;;;;;;;5.63;88.29;99259.81;5063742;28;20456;-52
2023/03/06 07:50:32;;;;;;;2.33;1.70;;;;;;;5.50;89.06;99266.28;5062029;28;20475;-51
2023/03/06 07:52:58;;;;;;;1.00;0.97;;;;;;;5.33;88.98;99267.53;5067236;28;20947;-52
2023/03/06 07:55:25;;;;;;;2.60;1.60;;;;;;;5.19;88.81;99267.00;5071170;28;20441;-51
2023/03/06 07:57:51;;;;;;;2.43;1.90;;;;;;;5.19;89.04;99282.78;5067767;28;20455;-51
2023/03/06 08:00:19;;;;;;;1.07;0.97;;;;;;;5.46;88.25;99278.63;5069358;28;20852;-52
2023/03/06 08:02:45;;;;;;;2.70;2.57;;;;;;;5.45;88.01;99287.44;5070405;28;20461;-51
2023/03/06 08:05:14;;;;;;;1.73;1.50;;;;;;;5.42;87.43;99278.75;5060125;28;20486;-52
2023/03/06 08:07:42;;;;;;;8.00;3.07;;;;;;;5.46;88.00;99283.91;5065907;28;20457;-52
2023/03/06 08:10:13;;;;;;;5.60;2.43;;;;;;;5.38;88.13;99291.16;5068476;28;20469;-52
2023/03/06 08:12:39;;;;;;;3.80;2.40;;;;;;;5.56;87.79;99287.19;5065262;28;20897;-53
2023/03/06 08:15:09;;;;;;;3.07;2.70;;;;;;;5.32;88.13;99286.00;5061670;28;20935;-52
2023/03/06 08:17:35;;;;;;;2.00;1.37;;;;;;;5.39;87.42;99294.66;5065648;28;20451;-52
2023/03/06 08:20:02;;;;;;;1.80;1.70;;;;;;;5.31;87.66;99292.19;5067940;28;20997;-52
2023/03/06 08:22:29;;;;;;;2.80;2.70;;;;;;;5.45;86.23;99294.50;5065723;28;20457;-52
2023/03/06 08:24:55;;;;;;;10.50;3.10;;;;;;;5.49;85.98;99296.19;5061358;28;21021;-52
2023/03/06 08:27:22;;;;;;;1.23;1.23;;;;;;;5.43;84.89;99280.50;5063300;28;20454;-52
2023/03/06 08:29:49;;;;;;;3.83;2.90;;;;;;;5.55;84.88;99293.38;5067277;28;20478;-52
2023/03/06 08:32:15;;;;;;;2.17;1.30;;;;;;;5.50;84.15;99290.00;5066339;28;20469;-52
2023/03/06 08:34:44;;;;;;;4.77;2.33;;;;;;;5.53;84.11;99289.91;5061506;28;20453;-52
2023/03/06 08:37:10;;;;;;;2.17;2.07;;;;;;;5.57;84.03;99292.44;5063153;28;20524;-52
2023/03/06 08:39:37;;;;;;;3.23;2.20;;;;;;;5.77;84.59;99293.72;5067687;28;20475;-52
2023/03/06 08:42:03;;;;;;;2.13;1.73;;;;;;;5.67;83.51;99290.44;5066679;28;20462;-52
2023/03/06 08:44:29;;;;;;;8.03;3.50;;;;;;;5.58;83.67;99295.94;5060737;28;20445;-52
2023/03/06 08:46:56;;;;;;;1.93;1.40;;;;;;;5.78;82.52;99300.72;5062233;28;20469;-52
2023/03/06 08:49:22;;;;;;;2.03;1.93;;;;;;;5.65;82.92;99289.63;5073585;28;20478;-52
2023/03/06 08:51:49;;;;;;;4.60;2.30;;;;;;;5.71;82.57;99284.19;5061779;28;20458;-52
2023/03/06 08:54:15;;;;;;;2.67;2.43;;;;;;;5.86;81.29;99296.09;5073645;28;20446;-52
2023/03/06 08:56:42;;;;;;;3.53;3.23;;;;;;;5.70;81.31;99292.13;5074347;28;20446;-52
2023/03/06 08:59:10;;;;;;;3.97;3.30;;;;;;;5.75;81.18;99290.22;5060979;28;20469;-52
2023/03/06 09:01:38;;;;;;;2.67;2.53;;;;;;;5.81;81.13;99290.97;5066924;28;20466;-52
2023/03/06 09:04:07;;;;;;;5.70;1.97;;;;;;;6.03;81.25;99288.69;5064937;28;20816;-52
2023/03/06 09:06:38;;;;;;;5.47;3.80;;;;;;;5.92;79.84;99290.72;5067918;28;20496;-52
2023/03/06 09:09:05;;;;;;;2.77;2.07;;;;;;;6.07;79.58;99298.22;5062069;28;20466;-52
2023/03/06 09:11:31;;;;;;;1.63;1.53;;;;;;;6.17;79.39;99302.38;5060461;28;20481;-50
2023/03/06 09:13:58;;;;;;;6.40;2.77;;;;;;;6.12;79.16;99309.53;5065519;28;20447;-50
2023/03/06 09:16:25;;;;;;;2.50;2.40;;;;;;;6.10;79.56;99308.69;5067512;28;20446;-50
2023/03/06 09:18:51;;;;;;;5.10;2.90;;;;;;;6.35;78.84;99313.31;5062129;28;20474;-50
2023/03/06 09:21:20;;;;;;;3.53;2.20;;;;;;;6.54;78.55;99311.91;5060200;28;20871;-50
2023/03/06 09:23:46;;;;;;;1.43;1.33;;;;;;;6.34;77.70;99307.19;5065260;28;20855;-49
2023/03/06 09:26:13;;;;;;;3.90;1.83;;;;;;;6.41;77.84;99305.22;5066866;28;20535;-49
2023/03/06 09:28:40;;;;;;;4.13;1.90;;;;;;;6.21;78.48;99308.41;5061930;28;20782;-49
2023/03/06 09:31:11;;;;;;;13.23;2.10;;;;;;;6.13;77.69;99308.59;5060651;28;20843;-49
2023/03/06 09:33:38;;;;;;;1.83;1.60;;;;;;;5.99;77.26;99304.59;5064633;28;20443;-49
2023/03/06 09:36:06;;;;;;;2.17;2.07;;;;;;;6.12;76.99;99304.25;5066982;28;20938;-49
2023/03/06 09:38:33;;;;;;;2.77;2.60;;;;;;;6.08;76.36;99305.25;5062907;28;20449;-49
2023/03/06 09:41:14;;;;;;;4.10;3.80;;;;;;;6.12;77.75;99313.94;5060134;28;20504;-50
2023/03/06 09:43:45;;;;;;;1.07;1.07;;;;;;;6.05;77.68;99310.59;5063616;28;20465;-49
2023/03/06 09:46:17;;;;;;;4.10;2.77;;;;;;;6.18;76.94;99312.00;5069584;28;20570;-49
2023/03/06 09:49:15;;;;;;;7.03;3.40;;;;;;;6.24;76.92;99303.06;5068273;28;20438;-48
2023/03/06 09:52:00;;;;;;;4.97;2.67;;;;;;;6.49;75.40;99300.63;5062100;28;20799;-49
2023/03/06 09:54:41;;;;;;;4.20;3.90;;;;;;;6.71;74.95;99300.84;5060607;28;20796;-48
2023/03/06 09:57:20;;;;;;;2.90;1.73;;;;;;;6.80;74.68;99305.88;5070066;28;20442;-49
2023/03/06 09:59:49;;;;;;;1.80;1.70;;;;;;;6.64;74.65;99299.31;5053020;28;20501;-50
2023/03/06 10:02:40;;;;;;;2.10;1.97;;;;;;;6.54;75.29;99304.84;5071736;28;20458;-49
2023/03/06 10:05:52;;;;;;;6.23;2.60;;;;;;;6.84;74.62;99302.22;5059336;28;20999;-49
2023/03/06 10:08:45;;;;;;;2.23;1.77;;;;;;;7.06;74.03;99298.03;5048762;28;20446;-50
2023/03/06 10:11:17;;;;;;;3.67;3.37;;;;;;;7.08;73.19;99300.63;5041406;28;20446;-49
2023/03/06 10:14:07;;;;;;;3.43;3.23;;;;;;;6.90;72.69;99304.69;5066793;28;20522;-48
2023/03/06 10:16:33;;;;;;;2.53;2.23;;;;;;;6.95;72.92;99294.00;5065854;28;20448;-49
2023/03/06 10:19:09;;;;;;;0.93;0.93;;;;;;;7.22;71.82;99294.94;5062033;28;20474;-50
2023/03/06 10:21:45;;;;;;;2.50;1.90;;;;;;;6.92;72.12;99302.00;5059168;28;21009;-49
2023/03/06 10:24:20;;;;;;;4.50;2.00;;;;;;;6.93;71.70;99295.81;5060973;28;20453;-49
2023/03/06 10:27:01;;;;;;;5.30;2.50;;;;;;;7.24;72.35;99293.09;5066273;28;20531;-51
2023/03/06 10:29:54;;;;;;;2.33;2.13;;;;;;;7.24;70.94;99293.97;5066493;28;20465;-49
2023/03/06 10:32:42;;;;;;;3.70;3.40;;;;;;;7.28;71.97;99290.34;5065695;28;20474;-49
2023/03/06 10:35:19;;;;;;;7.13;3.40;;;;;;;7.37;70.30;99290.03;5061369;28;20469;-49
2023/03/06 10:37:46;;;;;;;2.70;2.50;;;;;;;7.33;69.71;99282.25;5059224;28;20466;-48
2023/03/06 10:40:19;;;;;;;4.30;4.00;;;;;;;7.47;69.98;99284.44;5062496;28;20467;-49
2023/03/06 10:42:45;;;;;;;3.60;3.37;;;;;;;7.59;69.48;99292.84;5066000;28;20516;-49
2023/03/06 10:45:15;;;;;;;2.80;2.13;;;;;;;7.36;70.25;99285.66;5063488;28;20503;-49
2023/03/06 10:47:43;;;;;;;4.37;3.30;;;;;;;7.74;69.63;99286.19;5058738;28;20454;-49
2023/03/06 10:50:27;;;;;;;4.93;3.53;;;;;;;8.05;69.10;99278.06;5060887;28;21034;-49
2023/03/06 10:53:00;;;;;;;8.13;3.50;;;;;;;7.95;67.66;99280.19;5066258;28;20459;-48
2023/03/06 10:55:29;;;;;;;7.23;5.83;;;;;;;7.97;67.29;99291.59;5076643;28;20445;-49
2023/03/06 10:57:56;;;;;;;4.30;4.00;;;;;;;7.87;68.38;99289.28;5067961;28;20934;-49
2023/03/06 11:00:40;;;;;;;1.97;1.83;;;;;;;8.02;67.92;99291.41;5065166;28;20487;-49
2023/03/06 11:03:20;;;;;;;3.93;2.90;;;;;;;7.98;64.45;99290.66;5079134;28;20453;-50
2023/03/06 11:06:30;;;;;;;4.07;3.60;;;;;;;7.99;63.71;99287.09;5071275;28;20485;-49
2023/03/06 11:09:22;;;;;;;4.40;2.67;;;;;;;8.15;64.66;99283.91;5065481;28;20501;-49
2023/03/06 11:11:50;;;;;;;1.90;1.80;;;;;;;8.30;64.08;99289.53;5065056;28;20453;-50
2023/03/06 11:14:23;;;;;;;6.27;3.57;;;;;;;8.52;63.77;99294.09;5067983;28;20508;-49
2023/03/06 11:16:53;;;;;;;1.97;1.87;;;;;;;8.52;64.38;99288.81;5071724;28;21020;-50
2023/03/06 11:19:28;;;;;;;3.20;3.00;;;;;;;8.52;63.45;99288.81;5070493;28;20831;-50
2023/03/06 11:22:15;;;;;;;15.27;4.73;;;;;;;8.45;63.46;99287.28;5064774;28;20953;-50
2023/03/06 11:24:46;;;;;;;4.30;3.20;;;;;;;8.60;62.12;99284.06;5064961;28;20447;-49
2023/03/06 11:27:24;;;;;;;7.20;3.70;;;;;;;8.18;63.29;99278.50;5078591;28;20485;-50
2023/03/06 11:29:53;;;;;;;3.57;3.23;;;;;;;8.54;63.97;99276.38;5065120;28;20980;-50
2023/03/06 11:32:24;;;;;;;6.57;4.40;;;;;;;8.50;62.40;99267.69;5069359;28;20453;-50
2023/03/06 11:34:57;;;;;;;6.40;3.17;;;;;;;8.43;63.27;99265.31;5065012;28;20512;-50
2023/03/06 11:37:52;;;;;;;11.30;3.63;;;;;;;8.54;63.78;99268.41;5064657;28;20443;-50
2023/03/06 11:40:19;;;;;;;5.77;3.83;;;;;;;8.64;63.56;99259.22;5067573;28;20466;-50
2023/03/06 11:42:52;;;;;;;3.20;3.00;;;;;;;8.57;63.42;99266.50;5071877;28;20446;-50
2023/03/06 11:45:41;;;;;;;7.10;3.20;;;;;;;8.94;62.34;99256.31;5070199;28;20446;-50
2023/03/06 11:48:13;;;;;;;16.97;2.17;;;;;;;9.05;61.92;99260.28;5066526;28;20460;-50
2023/03/06 11:50:43;;;;;;;3.60;2.90;;;;;;;8.72;61.69;99248.31;5064420;28;20921;-50
2023/03/06 11:53:13;;;;;;;5.30;4.57;;;;;;;8.44;62.46;99248.50;5067691;28;20447;-50